sensor_id;sensor_type;location;lat;lon;timestamp;P1;durP1;ratioP1;P2;durP2;ratioP2
64052;SDS011;50299;49.524;8.536;2023-02-21T00:02:15;16.75;;;9.70;;
64052;SDS011;50299;49.524;8.536;2023-02-21T00:05:00;14.07;;;9.55;;
64052;SDS011;50299;49.524;8.536;2023-02-21T00:07:46;14.75;;;10.30;;
64052;SDS011;50299;49.524;8.536;2023-02-21T00:10:32;13.70;;;9.85;;
64052;SDS011;50299;49.524;8.536;2023-02-21T00:13:17;18.33;;;9.00;;
64052;SDS011;50299;49.524;8.536;2023-02-21T00:16:01;12.75;;;9.23;;
64052;SDS011;50299;49.524;8.536;2023-02-21T00:18:46;12.48;;;9.60;;
64052;SDS011;50299;49.524;8.536;2023-02-21T00:21:31;15.35;;;8.55;;
64052;SDS011;50299;49.524;8.536;2023-02-21T00:24:17;13.93;;;9.15;;
64052;SDS011;50299;49.524;8.536;2023-02-21T00:27:03;13.25;;;9.50;;
64052;SDS011;50299;49.524;8.536;2023-02-21T00:29:49;16.15;;;10.55;;
64052;SDS011;50299;49.524;8.536;2023-02-21T00:32:35;14.82;;;9.15;;
64052;SDS011;50299;49.524;8.536;2023-02-21T00:35:20;13.98;;;9.50;;
64052;SDS011;50299;49.524;8.536;2023-02-21T00:38:05;12.27;;;8.90;;
64052;SDS011;50299;49.524;8.536;2023-02-21T00:40:51;12.35;;;8.77;;
64052;SDS011;50299;49.524;8.536;2023-02-21T00:43:37;14.50;;;10.52;;
64052;SDS011;50299;49.524;8.536;2023-02-21T00:46:22;12.70;;;8.10;;
64052;SDS011;50299;49.524;8.536;2023-02-21T00:49:07;11.82;;;8.45;;
64052;SDS011;50299;49.524;8.536;2023-02-21T00:51:52;12.55;;;9.20;;
64052;SDS011;50299;49.524;8.536;2023-02-21T00:54:38;13.55;;;9.10;;
64052;SDS011;50299;49.524;8.536;2023-02-21T00:57:23;14.10;;;8.77;;
64052;SDS011;50299;49.524;8.536;2023-02-21T01:00:09;13.13;;;8.82;;
64052;SDS011;50299;49.524;8.536;2023-02-21T01:03:00;16.75;;;7.97;;
64052;SDS011;50299;49.524;8.536;2023-02-21T01:05:45;12.80;;;8.38;;
64052;SDS011;50299;49.524;8.536;2023-02-21T01:08:30;16.00;;;9.75;;
64052;SDS011;50299;49.524;8.536;2023-02-21T01:11:19;14.63;;;8.88;;
64052;SDS011;50299;49.524;8.536;2023-02-21T01:14:06;17.25;;;10.10;;
64052;SDS011;50299;49.524;8.536;2023-02-21T01:16:53;13.73;;;8.43;;
64052;SDS011;50299;49.524;8.536;2023-02-21T01:19:39;16.67;;;8.88;;
64052;SDS011;50299;49.524;8.536;2023-02-21T01:22:25;10.63;;;7.68;;
64052;SDS011;50299;49.524;8.536;2023-02-21T01:25:11;14.00;;;8.68;;
64052;SDS011;50299;49.524;8.536;2023-02-21T01:27:55;14.70;;;9.25;;
64052;SDS011;50299;49.524;8.536;2023-02-21T01:30:40;13.80;;;9.02;;
64052;SDS011;50299;49.524;8.536;2023-02-21T01:33:26;11.57;;;8.50;;
64052;SDS011;50299;49.524;8.536;2023-02-21T01:36:11;10.73;;;8.00;;
64052;SDS011;50299;49.524;8.536;2023-02-21T01:38:55;11.98;;;8.48;;
64052;SDS011;50299;49.524;8.536;2023-02-21T01:41:41;12.05;;;7.90;;
64052;SDS011;50299;49.524;8.536;2023-02-21T01:47:14;11.15;;;8.10;;
64052;SDS011;50299;49.524;8.536;2023-02-21T01:50:00;17.02;;;8.75;;
64052;SDS011;50299;49.524;8.536;2023-02-21T01:52:47;11.93;;;9.80;;
64052;SDS011;50299;49.524;8.536;2023-02-21T01:55:33;13.25;;;7.82;;
64052;SDS011;50299;49.524;8.536;2023-02-21T01:58:23;12.30;;;7.85;;
64052;SDS011;50299;49.524;8.536;2023-02-21T02:01:09;13.25;;;8.25;;
64052;SDS011;50299;49.524;8.536;2023-02-21T02:03:59;12.10;;;9.00;;
64052;SDS011;50299;49.524;8.536;2023-02-21T02:06:45;13.20;;;9.40;;
64052;SDS011;50299;49.524;8.536;2023-02-21T02:09:30;13.95;;;8.80;;
64052;SDS011;50299;49.524;8.536;2023-02-21T02:12:22;12.18;;;9.25;;
64052;SDS011;50299;49.524;8.536;2023-02-21T02:31:51;11.57;;;8.45;;
64052;SDS011;50299;49.524;8.536;2023-02-21T02:34:45;12.35;;;8.82;;
64052;SDS011;50299;49.524;8.536;2023-02-21T02:37:46;14.25;;;9.05;;
64052;SDS011;50299;49.524;8.536;2023-02-21T02:40:26;15.48;;;8.48;;
64052;SDS011;50299;49.524;8.536;2023-02-21T02:45:45;13.30;;;8.15;;
64052;SDS011;50299;49.524;8.536;2023-02-21T02:48:16;13.90;;;8.48;;
64052;SDS011;50299;49.524;8.536;2023-02-21T02:50:48;13.45;;;8.60;;
64052;SDS011;50299;49.524;8.536;2023-02-21T02:53:19;14.35;;;8.55;;
64052;SDS011;50299;49.524;8.536;2023-02-21T02:55:49;16.75;;;9.10;;
64052;SDS011;50299;49.524;8.536;2023-02-21T02:58:19;13.18;;;8.57;;
64052;SDS011;50299;49.524;8.536;2023-02-21T03:00:53;12.18;;;10.43;;
64052;SDS011;50299;49.524;8.536;2023-02-21T03:03:44;16.17;;;9.13;;
64052;SDS011;50299;49.524;8.536;2023-02-21T03:06:44;16.73;;;9.05;;
64052;SDS011;50299;49.524;8.536;2023-02-21T03:09:23;10.55;;;8.07;;
64052;SDS011;50299;49.524;8.536;2023-02-21T03:12:00;10.45;;;7.72;;
64052;SDS011;50299;49.524;8.536;2023-02-21T03:14:28;15.02;;;8.52;;
64052;SDS011;50299;49.524;8.536;2023-02-21T03:17:03;13.23;;;9.23;;
64052;SDS011;50299;49.524;8.536;2023-02-21T03:19:36;13.45;;;8.75;;
64052;SDS011;50299;49.524;8.536;2023-02-21T03:22:26;17.42;;;11.77;;
64052;SDS011;50299;49.524;8.536;2023-02-21T03:24:56;18.88;;;11.02;;
64052;SDS011;50299;49.524;8.536;2023-02-21T03:27:25;13.68;;;9.57;;
64052;SDS011;50299;49.524;8.536;2023-02-21T03:29:52;13.15;;;9.38;;
64052;SDS011;50299;49.524;8.536;2023-02-21T03:32:23;21.63;;;10.18;;
64052;SDS011;50299;49.524;8.536;2023-02-21T03:34:53;14.30;;;8.90;;
64052;SDS011;50299;49.524;8.536;2023-02-21T03:37:20;14.23;;;9.52;;
64052;SDS011;50299;49.524;8.536;2023-02-21T03:39:47;14.50;;;9.35;;
64052;SDS011;50299;49.524;8.536;2023-02-21T03:42:14;24.17;;;11.80;;
64052;SDS011;50299;49.524;8.536;2023-02-21T03:44:40;20.23;;;13.32;;
64052;SDS011;50299;49.524;8.536;2023-02-21T03:47:06;21.08;;;12.45;;
64052;SDS011;50299;49.524;8.536;2023-02-21T03:49:33;20.70;;;11.75;;
64052;SDS011;50299;49.524;8.536;2023-02-21T03:51:59;26.70;;;12.20;;
64052;SDS011;50299;49.524;8.536;2023-02-21T03:54:25;15.30;;;8.90;;
64052;SDS011;50299;49.524;8.536;2023-02-21T03:56:52;14.32;;;9.35;;
64052;SDS011;50299;49.524;8.536;2023-02-21T03:59:18;12.88;;;10.27;;
64052;SDS011;50299;49.524;8.536;2023-02-21T04:01:44;35.80;;;15.40;;
64052;SDS011;50299;49.524;8.536;2023-02-21T04:04:11;70.82;;;18.33;;
64052;SDS011;50299;49.524;8.536;2023-02-21T04:06:37;184.23;;;28.35;;
64052;SDS011;50299;49.524;8.536;2023-02-21T04:09:03;12.60;;;9.90;;
64052;SDS011;50299;49.524;8.536;2023-02-21T04:11:30;17.48;;;11.77;;
64052;SDS011;50299;49.524;8.536;2023-02-21T04:13:57;17.63;;;11.10;;
64052;SDS011;50299;49.524;8.536;2023-02-21T04:16:23;17.77;;;11.18;;
64052;SDS011;50299;49.524;8.536;2023-02-21T04:18:49;12.75;;;10.27;;
64052;SDS011;50299;49.524;8.536;2023-02-21T04:21:16;17.15;;;11.25;;
64052;SDS011;50299;49.524;8.536;2023-02-21T04:23:43;16.27;;;10.75;;
64052;SDS011;50299;49.524;8.536;2023-02-21T04:26:09;15.40;;;10.80;;
64052;SDS011;50299;49.524;8.536;2023-02-21T04:28:35;12.35;;;10.95;;
64052;SDS011;50299;49.524;8.536;2023-02-21T04:31:02;16.20;;;11.43;;
64052;SDS011;50299;49.524;8.536;2023-02-21T04:33:28;15.50;;;11.55;;
64052;SDS011;50299;49.524;8.536;2023-02-21T04:35:55;31.23;;;13.82;;
64052;SDS011;50299;49.524;8.536;2023-02-21T04:38:21;12.90;;;10.07;;
64052;SDS011;50299;49.524;8.536;2023-02-21T04:40:47;16.20;;;10.73;;
64052;SDS011;50299;49.524;8.536;2023-02-21T04:43:14;13.32;;;10.25;;
64052;SDS011;50299;49.524;8.536;2023-02-21T04:45:40;13.73;;;9.90;;
64052;SDS011;50299;49.524;8.536;2023-02-21T04:48:06;16.50;;;11.55;;
64052;SDS011;50299;49.524;8.536;2023-02-21T04:50:33;21.25;;;11.68;;
64052;SDS011;50299;49.524;8.536;2023-02-21T04:52:59;18.90;;;10.57;;
64052;SDS011;50299;49.524;8.536;2023-02-21T04:55:25;14.82;;;11.15;;
64052;SDS011;50299;49.524;8.536;2023-02-21T04:57:52;15.82;;;11.73;;
64052;SDS011;50299;49.524;8.536;2023-02-21T05:00:18;14.85;;;11.20;;
64052;SDS011;50299;49.524;8.536;2023-02-21T05:02:45;21.92;;;11.05;;
64052;SDS011;50299;49.524;8.536;2023-02-21T05:05:12;13.35;;;10.13;;
64052;SDS011;50299;49.524;8.536;2023-02-21T05:07:42;17.60;;;10.63;;
64052;SDS011;50299;49.524;8.536;2023-02-21T05:10:09;16.67;;;11.02;;
64052;SDS011;50299;49.524;8.536;2023-02-21T05:12:36;14.52;;;10.88;;
64052;SDS011;50299;49.524;8.536;2023-02-21T05:15:05;14.50;;;10.43;;
64052;SDS011;50299;49.524;8.536;2023-02-21T05:17:31;24.17;;;12.48;;
64052;SDS011;50299;49.524;8.536;2023-02-21T05:19:58;13.68;;;10.23;;
64052;SDS011;50299;49.524;8.536;2023-02-21T05:22:24;14.02;;;9.82;;
64052;SDS011;50299;49.524;8.536;2023-02-21T05:24:50;12.80;;;9.43;;
64052;SDS011;50299;49.524;8.536;2023-02-21T05:27:20;15.77;;;9.93;;
64052;SDS011;50299;49.524;8.536;2023-02-21T05:29:48;14.43;;;9.52;;
64052;SDS011;50299;49.524;8.536;2023-02-21T05:32:15;47.05;;;13.85;;
64052;SDS011;50299;49.524;8.536;2023-02-21T05:34:43;14.07;;;9.00;;
64052;SDS011;50299;49.524;8.536;2023-02-21T05:37:17;16.25;;;9.18;;
64052;SDS011;50299;49.524;8.536;2023-02-21T05:39:46;19.17;;;10.05;;
64052;SDS011;50299;49.524;8.536;2023-02-21T05:42:13;17.23;;;10.68;;
64052;SDS011;50299;49.524;8.536;2023-02-21T05:44:42;16.30;;;10.75;;
64052;SDS011;50299;49.524;8.536;2023-02-21T05:47:09;16.67;;;11.48;;
64052;SDS011;50299;49.524;8.536;2023-02-21T05:49:36;14.43;;;12.00;;
64052;SDS011;50299;49.524;8.536;2023-02-21T05:52:02;15.25;;;10.77;;
64052;SDS011;50299;49.524;8.536;2023-02-21T05:54:30;21.80;;;12.25;;
64052;SDS011;50299;49.524;8.536;2023-02-21T05:56:56;20.05;;;11.80;;
64052;SDS011;50299;49.524;8.536;2023-02-21T05:59:23;13.98;;;9.85;;
64052;SDS011;50299;49.524;8.536;2023-02-21T06:01:50;19.60;;;11.10;;
64052;SDS011;50299;49.524;8.536;2023-02-21T06:04:17;15.90;;;10.00;;
64052;SDS011;50299;49.524;8.536;2023-02-21T06:06:44;19.05;;;11.18;;
64052;SDS011;50299;49.524;8.536;2023-02-21T06:09:10;16.88;;;9.55;;
64052;SDS011;50299;49.524;8.536;2023-02-21T06:11:38;18.75;;;11.18;;
64052;SDS011;50299;49.524;8.536;2023-02-21T06:14:12;20.77;;;10.63;;
64052;SDS011;50299;49.524;8.536;2023-02-21T06:16:40;17.98;;;11.15;;
64052;SDS011;50299;49.524;8.536;2023-02-21T06:19:07;16.63;;;9.77;;
64052;SDS011;50299;49.524;8.536;2023-02-21T06:21:35;14.07;;;10.20;;
64052;SDS011;50299;49.524;8.536;2023-02-21T06:24:02;13.55;;;9.75;;
64052;SDS011;50299;49.524;8.536;2023-02-21T06:26:28;15.85;;;10.13;;
64052;SDS011;50299;49.524;8.536;2023-02-21T06:28:55;16.75;;;10.95;;
64052;SDS011;50299;49.524;8.536;2023-02-21T06:31:21;14.88;;;10.05;;
64052;SDS011;50299;49.524;8.536;2023-02-21T06:33:48;17.75;;;10.73;;
64052;SDS011;50299;49.524;8.536;2023-02-21T06:36:16;15.13;;;9.98;;
64052;SDS011;50299;49.524;8.536;2023-02-21T06:38:45;17.60;;;10.98;;
64052;SDS011;50299;49.524;8.536;2023-02-21T06:41:14;15.82;;;10.35;;
64052;SDS011;50299;49.524;8.536;2023-02-21T06:43:41;18.13;;;11.27;;
64052;SDS011;50299;49.524;8.536;2023-02-21T06:46:08;18.80;;;10.98;;
64052;SDS011;50299;49.524;8.536;2023-02-21T06:48:35;16.38;;;11.52;;
64052;SDS011;50299;49.524;8.536;2023-02-21T06:51:01;17.08;;;10.80;;
64052;SDS011;50299;49.524;8.536;2023-02-21T06:53:28;16.85;;;10.73;;
64052;SDS011;50299;49.524;8.536;2023-02-21T06:55:54;16.58;;;11.52;;
64052;SDS011;50299;49.524;8.536;2023-02-21T06:58:21;18.52;;;11.13;;
64052;SDS011;50299;49.524;8.536;2023-02-21T07:00:47;16.10;;;11.10;;
64052;SDS011;50299;49.524;8.536;2023-02-21T07:03:14;21.90;;;12.27;;
64052;SDS011;50299;49.524;8.536;2023-02-21T07:05:40;16.55;;;11.88;;
64052;SDS011;50299;49.524;8.536;2023-02-21T07:08:07;16.50;;;11.50;;
64052;SDS011;50299;49.524;8.536;2023-02-21T07:10:33;17.02;;;11.02;;
64052;SDS011;50299;49.524;8.536;2023-02-21T07:12:59;16.80;;;11.50;;
64052;SDS011;50299;49.524;8.536;2023-02-21T07:15:26;14.60;;;9.40;;
64052;SDS011;50299;49.524;8.536;2023-02-21T07:17:52;16.98;;;11.02;;
64052;SDS011;50299;49.524;8.536;2023-02-21T07:20:19;17.52;;;10.32;;
64052;SDS011;50299;49.524;8.536;2023-02-21T07:22:45;14.38;;;10.25;;
64052;SDS011;50299;49.524;8.536;2023-02-21T07:25:17;15.75;;;10.88;;
64052;SDS011;50299;49.524;8.536;2023-02-21T07:27:46;13.88;;;10.07;;
64052;SDS011;50299;49.524;8.536;2023-02-21T07:30:13;16.50;;;11.88;;
64052;SDS011;50299;49.524;8.536;2023-02-21T07:32:41;15.30;;;11.18;;
64052;SDS011;50299;49.524;8.536;2023-02-21T07:35:08;18.13;;;12.23;;
64052;SDS011;50299;49.524;8.536;2023-02-21T07:37:34;14.38;;;11.05;;
64052;SDS011;50299;49.524;8.536;2023-02-21T07:40:01;15.95;;;11.68;;
64052;SDS011;50299;49.524;8.536;2023-02-21T07:42:27;17.55;;;11.63;;
64052;SDS011;50299;49.524;8.536;2023-02-21T07:44:56;14.77;;;11.40;;
64052;SDS011;50299;49.524;8.536;2023-02-21T07:49:50;20.83;;;11.88;;
64052;SDS011;50299;49.524;8.536;2023-02-21T07:52:19;17.15;;;12.40;;
64052;SDS011;50299;49.524;8.536;2023-02-21T07:54:46;14.00;;;12.13;;
64052;SDS011;50299;49.524;8.536;2023-02-21T07:57:14;16.50;;;12.35;;
64052;SDS011;50299;49.524;8.536;2023-02-21T07:59:41;14.27;;;10.95;;
64052;SDS011;50299;49.524;8.536;2023-02-21T08:02:08;14.27;;;11.18;;
64052;SDS011;50299;49.524;8.536;2023-02-21T08:04:37;13.18;;;11.00;;
64052;SDS011;50299;49.524;8.536;2023-02-21T08:07:03;15.18;;;11.30;;
64052;SDS011;50299;49.524;8.536;2023-02-21T08:09:30;15.18;;;11.02;;
64052;SDS011;50299;49.524;8.536;2023-02-21T08:11:57;16.05;;;12.50;;
64052;SDS011;50299;49.524;8.536;2023-02-21T08:14:23;13.50;;;11.02;;
64052;SDS011;50299;49.524;8.536;2023-02-21T08:16:49;14.02;;;11.32;;
64052;SDS011;50299;49.524;8.536;2023-02-21T08:19:16;13.88;;;11.15;;
64052;SDS011;50299;49.524;8.536;2023-02-21T08:21:49;14.77;;;11.65;;
64052;SDS011;50299;49.524;8.536;2023-02-21T08:24:16;17.55;;;12.32;;
64052;SDS011;50299;49.524;8.536;2023-02-21T08:26:44;14.73;;;11.50;;
64052;SDS011;50299;49.524;8.536;2023-02-21T08:29:11;15.10;;;11.18;;
64052;SDS011;50299;49.524;8.536;2023-02-21T08:31:39;12.02;;;10.30;;
64052;SDS011;50299;49.524;8.536;2023-02-21T08:34:06;13.30;;;10.85;;
64052;SDS011;50299;49.524;8.536;2023-02-21T08:36:35;12.85;;;10.80;;
64052;SDS011;50299;49.524;8.536;2023-02-21T08:39:03;13.30;;;11.20;;
64052;SDS011;50299;49.524;8.536;2023-02-21T08:41:43;14.45;;;10.98;;
64052;SDS011;50299;49.524;8.536;2023-02-21T08:44:12;13.07;;;10.32;;
64052;SDS011;50299;49.524;8.536;2023-02-21T08:46:44;13.10;;;10.73;;
64052;SDS011;50299;49.524;8.536;2023-02-21T08:49:14;13.90;;;10.25;;
64052;SDS011;50299;49.524;8.536;2023-02-21T08:51:41;15.15;;;11.48;;
64052;SDS011;50299;49.524;8.536;2023-02-21T08:54:07;15.35;;;11.65;;
64052;SDS011;50299;49.524;8.536;2023-02-21T08:56:34;14.32;;;10.85;;
64052;SDS011;50299;49.524;8.536;2023-02-21T08:59:00;17.00;;;12.10;;
64052;SDS011;50299;49.524;8.536;2023-02-21T09:01:33;23.83;;;11.43;;
64052;SDS011;50299;49.524;8.536;2023-02-21T09:04:01;15.38;;;10.50;;
64052;SDS011;50299;49.524;8.536;2023-02-21T09:06:29;13.88;;;11.15;;
64052;SDS011;50299;49.524;8.536;2023-02-21T09:08:55;12.45;;;11.25;;
64052;SDS011;50299;49.524;8.536;2023-02-21T09:11:22;12.50;;;10.98;;
64052;SDS011;50299;49.524;8.536;2023-02-21T09:13:48;12.75;;;9.55;;
64052;SDS011;50299;49.524;8.536;2023-02-21T09:16:15;12.02;;;10.20;;
64052;SDS011;50299;49.524;8.536;2023-02-21T09:18:42;12.73;;;10.90;;
64052;SDS011;50299;49.524;8.536;2023-02-21T09:21:08;13.00;;;10.75;;
64052;SDS011;50299;49.524;8.536;2023-02-21T09:23:34;12.30;;;10.95;;
64052;SDS011;50299;49.524;8.536;2023-02-21T09:26:00;12.13;;;10.43;;
64052;SDS011;50299;49.524;8.536;2023-02-21T09:28:27;13.35;;;10.35;;
64052;SDS011;50299;49.524;8.536;2023-02-21T09:30:54;13.68;;;11.93;;
64052;SDS011;50299;49.524;8.536;2023-02-21T09:33:20;14.18;;;11.85;;
64052;SDS011;50299;49.524;8.536;2023-02-21T09:35:49;14.27;;;11.63;;
64052;SDS011;50299;49.524;8.536;2023-02-21T09:38:16;13.85;;;11.50;;
64052;SDS011;50299;49.524;8.536;2023-02-21T09:40:47;16.55;;;11.65;;
64052;SDS011;50299;49.524;8.536;2023-02-21T09:43:24;12.75;;;11.15;;
64052;SDS011;50299;49.524;8.536;2023-02-21T09:45:57;13.25;;;11.95;;
64052;SDS011;50299;49.524;8.536;2023-02-21T09:48:25;14.85;;;11.95;;
64052;SDS011;50299;49.524;8.536;2023-02-21T09:50:55;14.52;;;12.25;;
64052;SDS011;50299;49.524;8.536;2023-02-21T09:53:46;14.30;;;12.13;;
64052;SDS011;50299;49.524;8.536;2023-02-21T09:56:19;13.07;;;11.45;;
64052;SDS011;50299;49.524;8.536;2023-02-21T09:58:53;14.82;;;13.18;;
64052;SDS011;50299;49.524;8.536;2023-02-21T10:04:41;15.63;;;12.48;;
64052;SDS011;50299;49.524;8.536;2023-02-21T10:07:15;14.32;;;12.73;;
64052;SDS011;50299;49.524;8.536;2023-02-21T10:09:59;15.13;;;12.65;;
64052;SDS011;50299;49.524;8.536;2023-02-21T10:12:33;13.93;;;11.75;;
64052;SDS011;50299;49.524;8.536;2023-02-21T10:15:14;16.50;;;13.02;;
64052;SDS011;50299;49.524;8.536;2023-02-21T10:20:37;14.30;;;12.00;;
64052;SDS011;50299;49.524;8.536;2023-02-21T10:23:17;17.83;;;13.15;;
64052;SDS011;50299;49.524;8.536;2023-02-21T10:25:48;14.32;;;12.82;;
64052;SDS011;50299;49.524;8.536;2023-02-21T10:28:21;16.65;;;12.10;;
64052;SDS011;50299;49.524;8.536;2023-02-21T10:30:50;14.15;;;12.65;;
64052;SDS011;50299;49.524;8.536;2023-02-21T10:33:22;17.90;;;12.90;;
64052;SDS011;50299;49.524;8.536;2023-02-21T10:35:49;16.48;;;11.52;;
64052;SDS011;50299;49.524;8.536;2023-02-21T10:38:16;17.45;;;12.43;;
64052;SDS011;50299;49.524;8.536;2023-02-21T10:40:47;14.25;;;12.52;;
64052;SDS011;50299;49.524;8.536;2023-02-21T10:43:31;14.55;;;12.98;;
64052;SDS011;50299;49.524;8.536;2023-02-21T10:48:47;15.15;;;12.45;;
64052;SDS011;50299;49.524;8.536;2023-02-21T10:51:31;16.20;;;13.25;;
64052;SDS011;50299;49.524;8.536;2023-02-21T10:54:33;15.65;;;12.52;;
64052;SDS011;50299;49.524;8.536;2023-02-21T10:56:52;15.10;;;12.45;;
64052;SDS011;50299;49.524;8.536;2023-02-21T10:59:20;16.15;;;13.30;;
64052;SDS011;50299;49.524;8.536;2023-02-21T11:01:49;18.77;;;11.85;;
64052;SDS011;50299;49.524;8.536;2023-02-21T11:06:48;15.23;;;11.68;;
64052;SDS011;50299;49.524;8.536;2023-02-21T11:09:30;12.07;;;10.32;;
64052;SDS011;50299;49.524;8.536;2023-02-21T11:12:04;13.85;;;11.65;;
64052;SDS011;50299;49.524;8.536;2023-02-21T11:17:24;14.77;;;11.93;;
64052;SDS011;50299;49.524;8.536;2023-02-21T11:20:02;15.02;;;11.45;;
64052;SDS011;50299;49.524;8.536;2023-02-21T11:22:40;18.23;;;12.00;;
64052;SDS011;50299;49.524;8.536;2023-02-21T11:25:28;14.38;;;10.80;;
64052;SDS011;50299;49.524;8.536;2023-02-21T11:28:16;13.88;;;10.73;;
64052;SDS011;50299;49.524;8.536;2023-02-21T11:33:24;14.57;;;11.10;;
64052;SDS011;50299;49.524;8.536;2023-02-21T11:35:51;12.88;;;10.45;;
64052;SDS011;50299;49.524;8.536;2023-02-21T11:38:33;17.27;;;11.35;;
64052;SDS011;50299;49.524;8.536;2023-02-21T11:41:16;15.15;;;11.00;;
64052;SDS011;50299;49.524;8.536;2023-02-21T11:43:49;13.25;;;11.52;;
64052;SDS011;50299;49.524;8.536;2023-02-21T11:46:22;15.20;;;12.00;;
64052;SDS011;50299;49.524;8.536;2023-02-21T11:49:22;14.43;;;11.80;;
64052;SDS011;50299;49.524;8.536;2023-02-21T11:51:54;16.02;;;11.07;;
64052;SDS011;50299;49.524;8.536;2023-02-21T11:54:27;17.27;;;11.32;;
64052;SDS011;50299;49.524;8.536;2023-02-21T11:56:58;15.38;;;11.30;;
64052;SDS011;50299;49.524;8.536;2023-02-21T12:06:18;12.05;;;10.60;;
64052;SDS011;50299;49.524;8.536;2023-02-21T12:09:06;12.35;;;10.25;;
64052;SDS011;50299;49.524;8.536;2023-02-21T12:11:55;11.50;;;9.50;;
64052;SDS011;50299;49.524;8.536;2023-02-21T12:17:16;15.35;;;10.00;;
64052;SDS011;50299;49.524;8.536;2023-02-21T12:25:44;13.73;;;10.35;;
64052;SDS011;50299;49.524;8.536;2023-02-21T12:31:10;14.95;;;10.77;;
64052;SDS011;50299;49.524;8.536;2023-02-21T12:33:56;14.13;;;10.43;;
64052;SDS011;50299;49.524;8.536;2023-02-21T12:36:43;11.70;;;9.63;;
64052;SDS011;50299;49.524;8.536;2023-02-21T12:41:57;11.10;;;8.45;;
64052;SDS011;50299;49.524;8.536;2023-02-21T12:44:57;11.52;;;8.55;;
64052;SDS011;50299;49.524;8.536;2023-02-21T12:47:27;13.98;;;9.52;;
64052;SDS011;50299;49.524;8.536;2023-02-21T12:50:08;9.02;;;7.75;;
64052;SDS011;50299;49.524;8.536;2023-02-21T12:55:30;11.82;;;9.15;;
64052;SDS011;50299;49.524;8.536;2023-02-21T12:58:11;9.57;;;7.40;;
64052;SDS011;50299;49.524;8.536;2023-02-21T13:06:27;8.65;;;7.50;;
64052;SDS011;50299;49.524;8.536;2023-02-21T13:14:44;9.38;;;6.60;;
64052;SDS011;50299;49.524;8.536;2023-02-21T13:17:16;10.07;;;7.05;;
64052;SDS011;50299;49.524;8.536;2023-02-21T13:28:56;11.98;;;7.93;;
64052;SDS011;50299;49.524;8.536;2023-02-21T13:31:27;9.43;;;7.72;;
64052;SDS011;50299;49.524;8.536;2023-02-21T13:34:05;9.98;;;7.47;;
64052;SDS011;50299;49.524;8.536;2023-02-21T13:39:10;8.30;;;6.28;;
64052;SDS011;50299;49.524;8.536;2023-02-21T13:41:47;7.55;;;5.35;;
64052;SDS011;50299;49.524;8.536;2023-02-21T13:44:21;9.18;;;6.15;;
64052;SDS011;50299;49.524;8.536;2023-02-21T13:57:30;9.70;;;6.82;;
64052;SDS011;50299;49.524;8.536;2023-02-21T14:00:17;10.80;;;7.00;;
64052;SDS011;50299;49.524;8.536;2023-02-21T14:08:23;9.68;;;6.60;;
64052;SDS011;50299;49.524;8.536;2023-02-21T14:10:53;7.57;;;6.60;;
64052;SDS011;50299;49.524;8.536;2023-02-21T14:13:38;8.68;;;7.68;;
64052;SDS011;50299;49.524;8.536;2023-02-21T14:21:05;9.85;;;6.80;;
64052;SDS011;50299;49.524;8.536;2023-02-21T14:23:40;10.38;;;6.90;;
64052;SDS011;50299;49.524;8.536;2023-02-21T14:29:30;8.93;;;6.57;;
64052;SDS011;50299;49.524;8.536;2023-02-21T14:37:12;7.93;;;5.80;;
64052;SDS011;50299;49.524;8.536;2023-02-21T14:39:48;8.20;;;5.70;;
64052;SDS011;50299;49.524;8.536;2023-02-21T14:42:21;6.30;;;5.63;;
64052;SDS011;50299;49.524;8.536;2023-02-21T14:47:54;7.82;;;6.38;;
64052;SDS011;50299;49.524;8.536;2023-02-21T14:50:35;6.25;;;5.45;;
64052;SDS011;50299;49.524;8.536;2023-02-21T14:59:26;7.47;;;5.68;;
64052;SDS011;50299;49.524;8.536;2023-02-21T15:02:13;9.32;;;5.53;;
64052;SDS011;50299;49.524;8.536;2023-02-21T15:04:59;6.40;;;5.03;;
64052;SDS011;50299;49.524;8.536;2023-02-21T15:12:45;6.53;;;5.35;;
64052;SDS011;50299;49.524;8.536;2023-02-21T15:17:54;6.75;;;5.20;;
64052;SDS011;50299;49.524;8.536;2023-02-21T15:20:24;8.52;;;5.68;;
64052;SDS011;50299;49.524;8.536;2023-02-21T15:22:58;6.53;;;5.15;;
64052;SDS011;50299;49.524;8.536;2023-02-21T15:25:28;6.50;;;5.15;;
64052;SDS011;50299;49.524;8.536;2023-02-21T15:27:55;6.15;;;5.18;;
64052;SDS011;50299;49.524;8.536;2023-02-21T15:32:56;6.72;;;5.30;;
64052;SDS011;50299;49.524;8.536;2023-02-21T15:35:45;8.55;;;5.63;;
64052;SDS011;50299;49.524;8.536;2023-02-21T15:41:31;7.05;;;4.78;;
64052;SDS011;50299;49.524;8.536;2023-02-21T15:47:06;6.72;;;4.53;;
64052;SDS011;50299;49.524;8.536;2023-02-21T15:52:06;6.63;;;5.28;;
64052;SDS011;50299;49.524;8.536;2023-02-21T15:54:51;6.70;;;4.75;;
64052;SDS011;50299;49.524;8.536;2023-02-21T15:58:02;6.97;;;4.05;;
64052;SDS011;50299;49.524;8.536;2023-02-21T16:00:39;4.88;;;3.78;;
64052;SDS011;50299;49.524;8.536;2023-02-21T16:06:12;7.55;;;4.50;;
64052;SDS011;50299;49.524;8.536;2023-02-21T16:08:49;6.95;;;4.72;;
64052;SDS011;50299;49.524;8.536;2023-02-21T16:11:17;5.93;;;3.92;;
64052;SDS011;50299;49.524;8.536;2023-02-21T16:13:44;5.88;;;4.15;;
64052;SDS011;50299;49.524;8.536;2023-02-21T16:16:11;6.90;;;4.18;;
64052;SDS011;50299;49.524;8.536;2023-02-21T16:18:38;5.55;;;3.83;;
64052;SDS011;50299;49.524;8.536;2023-02-21T16:21:05;4.95;;;3.70;;
64052;SDS011;50299;49.524;8.536;2023-02-21T16:23:34;6.07;;;3.75;;
64052;SDS011;50299;49.524;8.536;2023-02-21T16:28:35;4.90;;;3.47;;
64052;SDS011;50299;49.524;8.536;2023-02-21T16:31:03;6.90;;;4.18;;
64052;SDS011;50299;49.524;8.536;2023-02-21T16:33:32;4.35;;;3.90;;
64052;SDS011;50299;49.524;8.536;2023-02-21T16:36:03;8.30;;;3.80;;
64052;SDS011;50299;49.524;8.536;2023-02-21T16:38:31;6.18;;;3.40;;
64052;SDS011;50299;49.524;8.536;2023-02-21T16:40:58;6.13;;;4.13;;
64052;SDS011;50299;49.524;8.536;2023-02-21T16:43:25;6.82;;;3.58;;
64052;SDS011;50299;49.524;8.536;2023-02-21T16:45:56;4.18;;;3.38;;
64052;SDS011;50299;49.524;8.536;2023-02-21T16:48:26;4.65;;;3.47;;
64052;SDS011;50299;49.524;8.536;2023-02-21T16:50:58;5.03;;;3.38;;
64052;SDS011;50299;49.524;8.536;2023-02-21T16:53:28;5.28;;;4.05;;
64052;SDS011;50299;49.524;8.536;2023-02-21T16:55:54;7.65;;;4.03;;
64052;SDS011;50299;49.524;8.536;2023-02-21T16:58:29;6.05;;;3.65;;
64052;SDS011;50299;49.524;8.536;2023-02-21T17:00:56;6.57;;;3.65;;
64052;SDS011;50299;49.524;8.536;2023-02-21T17:03:27;4.93;;;3.95;;
64052;SDS011;50299;49.524;8.536;2023-02-21T17:05:54;4.43;;;3.60;;
64052;SDS011;50299;49.524;8.536;2023-02-21T17:08:23;5.68;;;3.47;;
64052;SDS011;50299;49.524;8.536;2023-02-21T17:10:50;5.53;;;4.00;;
64052;SDS011;50299;49.524;8.536;2023-02-21T17:13:17;5.57;;;3.85;;
64052;SDS011;50299;49.524;8.536;2023-02-21T17:15:44;4.00;;;3.45;;
64052;SDS011;50299;49.524;8.536;2023-02-21T17:18:12;4.28;;;3.60;;
64052;SDS011;50299;49.524;8.536;2023-02-21T17:20:39;4.32;;;3.92;;
64052;SDS011;50299;49.524;8.536;2023-02-21T17:23:05;5.85;;;3.53;;
64052;SDS011;50299;49.524;8.536;2023-02-21T17:25:32;4.68;;;4.25;;
64052;SDS011;50299;49.524;8.536;2023-02-21T17:28:00;4.13;;;3.40;;
64052;SDS011;50299;49.524;8.536;2023-02-21T17:30:26;8.77;;;4.32;;
64052;SDS011;50299;49.524;8.536;2023-02-21T17:32:52;7.63;;;4.85;;
64052;SDS011;50299;49.524;8.536;2023-02-21T17:35:20;6.38;;;3.97;;
64052;SDS011;50299;49.524;8.536;2023-02-21T17:37:47;8.30;;;3.92;;